NCAR-RAP Real-Time Weather Data

Output produced by METARs form (08 May 2021  02:00 UTC)
found at http://weather.rap.ucar.edu/surface/
 
KRKS 080054Z AUTO 22011G20KT 10SM SCT090 BKN120 20/M06 A2983 RMK AO2 PK WND 26052/0031 WSHFT 0013 SLP034 T02001061
KRKS 080031Z AUTO 26033G52KT 10SM SQ FEW090 BKN110 21/M08 A2984 RMK AO2 PK WND 26052/0031 WSHFT 0013 T02061078
KRKS 072354Z AUTO 27012G22KT 10SM SCT110 21/M06 A2984 RMK AO2 PK WND 31030/2330 SLP034 T02111061 10256 20200 56013
KRKS 072254Z AUTO 28017G27KT 10SM FEW120 23/M08 A2984 RMK AO2 PK WND 26040/2226 SLP040 T02281083
KRKS 072154Z AUTO 26013KT 10SM SCT110 22/M09 A2987 RMK AO2 PK WND 23042/2126 SLP037 T02221094
KRKS 072054Z AUTO 22018G35KT 10SM FEW110 22/M09 A2989 RMK AO2 PK WND 22041/2023 SLP039 T02221089 56024
KRKS 071954Z AUTO 23020G38KT 10SM CLR 24/M13 A2991 RMK AO2 PK WND 22038/1951 SLP039 T02441128
KRKS 071854Z AUTO 24015G37KT 10SM FEW120 25/M09 A2993 RMK AO2 PK WND 22037/1851 SLP043 T02501089
KRKS 071754Z AUTO 22009G17KT 180V240 10SM FEW120 23/M08 A2997 RMK AO2 SLP069 T02331083 10233 20061 58018
KRKS 071654Z AUTO 27013KT 10SM CLR 22/M08 A3000 RMK AO2 SLP075 T02221083
KRKS 071554Z AUTO 36006KT 10SM CLR 19/M04 A3002 RMK AO2 SLP089 T01941044
KRKS 071454Z AUTO 00000KT 10SM CLR 15/M05 A3004 RMK AO2 SLP101 T01501050 58006
KRKS 071354Z AUTO 15009KT 10SM CLR 12/M07 A3005 RMK AO2 SLP106 T01171067 $
KRKS 071254Z AUTO 03006KT 10SM FEW120 07/M08 A3006 RMK AO2 PK WND 24035/1227 SLP115 T00671078 $